Time;durP1;ratioP1;P1;durP2;ratioP2;P2;SDS_P1;SDS_P2;PMS_P1;PMS_P2;Temp;Humidity;BMP_temperature;BMP_pressure;BME280_temperature;BME280_humidity;BME280_pressure;Samples;Min_cycle;Max_cycle;Signal;HPM_P1;HPM_P2
2023/06/06 00:01:05;;;;;;;2.80;2.50;;;;;;;17.89;71.98;98660.78;5094685;27;103262;-65
2023/06/06 00:03:33;;;;;;;2.90;2.60;;;;;;;17.71;72.55;98663.50;5086159;27;103758;-65
2023/06/06 00:06:02;;;;;;;2.80;2.60;;;;;;;17.46;73.62;98656.25;5089759;27;102922;-65
2023/06/06 00:08:33;;;;;;;3.50;2.42;;;;;;;17.77;72.97;98657.53;5081373;27;104315;-64
2023/06/06 00:11:01;;;;;;;3.50;2.60;;;;;;;17.63;73.39;98658.09;5097725;27;103971;-64
2023/06/06 00:13:31;;;;;;;3.13;2.83;;;;;;;17.45;74.13;98662.59;5095544;27;103029;-64
2023/06/06 00:15:59;;;;;;;4.20;3.17;;;;;;;17.05;76.26;98659.56;5074535;27;103398;-63
2023/06/06 00:18:27;;;;;;;3.10;2.90;;;;;;;17.48;74.90;98670.31;5098814;27;102722;-64
2023/06/06 00:20:58;;;;;;;2.35;2.10;;;;;;;18.25;71.03;98664.13;5071122;27;103869;-64
2023/06/06 00:23:27;;;;;;;3.17;2.53;;;;;;;18.41;70.15;98661.56;5093688;27;103323;-64
2023/06/06 00:25:55;;;;;;;4.57;2.70;;;;;;;18.05;71.39;98668.06;5080915;27;103305;-64
2023/06/06 00:28:23;;;;;;;3.35;3.05;;;;;;;17.57;73.74;98666.72;5082645;27;102771;-64
2023/06/06 00:30:51;;;;;;;4.05;2.80;;;;;;;17.16;75.83;98675.34;5094626;27;103219;-64
2023/06/06 00:33:20;;;;;;;3.95;3.17;;;;;;;16.79;77.38;98672.81;5078958;27;103199;-65
2023/06/06 00:35:48;;;;;;;4.97;3.97;;;;;;;16.62;78.45;98668.28;5080659;27;103245;-65
2023/06/06 00:38:16;;;;;;;4.27;3.67;;;;;;;16.51;78.97;98669.28;5083596;27;102933;-64
2023/06/06 00:40:48;;;;;;;3.90;3.47;;;;;;;16.75;77.72;98666.97;5078807;27;103055;-65
2023/06/06 00:43:16;;;;;;;3.90;3.50;;;;;;;16.73;78.02;98666.25;5082326;27;103315;-64
2023/06/06 00:45:44;;;;;;;3.20;2.90;;;;;;;17.01;77.42;98668.88;5089408;27;102603;-65
2023/06/06 00:48:12;;;;;;;3.10;2.83;;;;;;;17.02;76.52;98666.06;5096232;27;102906;-65
2023/06/06 00:50:42;;;;;;;3.50;3.20;;;;;;;17.05;76.63;98660.41;5087461;27;103133;-65
2023/06/06 00:53:11;;;;;;;3.13;2.92;;;;;;;17.59;74.18;98672.75;5098311;27;103449;-65
2023/06/06 00:55:39;;;;;;;3.67;3.33;;;;;;;17.14;76.11;98664.00;5076900;27;103027;-65
2023/06/06 00:58:09;;;;;;;3.30;3.00;;;;;;;17.08;76.29;98667.28;5094267;27;102816;-65
2023/06/06 01:00:39;;;;;;;3.25;2.92;;;;;;;17.01;77.26;98668.88;5073488;27;103430;-65
2023/06/06 01:03:10;;;;;;;3.67;3.27;;;;;;;16.76;77.93;98665.94;5095118;27;103641;-65
2023/06/06 01:05:38;;;;;;;3.63;3.33;;;;;;;16.77;77.96;98661.47;5094175;27;102924;-65
2023/06/06 01:08:07;;;;;;;4.97;3.67;;;;;;;16.42;80.01;98664.84;5076473;27;102753;-65
2023/06/06 01:10:36;;;;;;;3.50;3.20;;;;;;;16.48;79.91;98666.94;5080282;27;103378;-65
2023/06/06 01:13:12;;;;;;;3.60;3.20;;;;;;;16.87;78.18;98661.41;5082294;27;103149;-69
2023/06/06 01:15:44;;;;;;;3.60;3.30;;;;;;;17.16;76.58;98664.69;5074596;27;102971;-69
2023/06/06 01:18:13;;;;;;;3.13;2.92;;;;;;;17.55;74.36;98652.69;5078907;27;102674;-71
2023/06/06 01:20:42;;;;;;;3.77;3.47;;;;;;;17.15;76.64;98658.50;5080728;27;103547;-70
2023/06/06 01:23:12;;;;;;;3.65;3.22;;;;;;;17.16;76.48;98660.19;5079699;27;103187;-71
2023/06/06 01:25:47;;;;;;;4.17;3.63;;;;;;;16.92;77.14;98659.97;5094758;27;102599;-65
2023/06/06 01:28:16;;;;;;;3.70;3.40;;;;;;;16.83;78.19;98654.69;5078360;27;104498;-70
2023/06/06 01:30:46;;;;;;;3.88;3.50;;;;;;;16.96;77.35;98657.81;5094696;27;103946;-65
2023/06/06 01:33:24;;;;;;;4.07;3.77;;;;;;;16.65;78.86;98663.50;5072343;27;104174;-65
2023/06/06 01:36:03;;;;;;;4.57;3.90;;;;;;;16.56;79.40;98658.25;5093682;27;102678;-65
2023/06/06 01:38:38;;;;;;;4.32;3.88;;;;;;;16.63;78.90;98660.16;5084667;27;102769;-69
2023/06/06 01:41:07;;;;;;;3.83;3.53;;;;;;;16.94;78.06;98652.63;5078289;27;103585;-69
2023/06/06 01:43:37;;;;;;;3.70;3.40;;;;;;;17.31;76.44;98655.16;5093666;27;103176;-69
2023/06/06 01:46:07;;;;;;;3.85;3.55;;;;;;;16.89;77.69;98646.06;5093954;27;103184;-65
2023/06/06 01:48:36;;;;;;;3.63;3.33;;;;;;;17.37;75.37;98655.34;5080001;27;102765;-65
2023/06/06 01:51:05;;;;;;;3.30;3.10;;;;;;;17.42;74.52;98657.56;5093949;27;103339;-65
2023/06/06 01:53:34;;;;;;;3.80;3.40;;;;;;;17.00;77.01;98653.84;5078645;27;103239;-65
2023/06/06 01:56:02;;;;;;;4.45;3.60;;;;;;;16.98;77.62;98656.66;5093712;27;103855;-65
2023/06/06 01:58:30;;;;;;;4.50;3.67;;;;;;;16.44;78.87;98657.56;5082939;27;104316;-65
2023/06/06 02:00:58;;;;;;;4.20;3.73;;;;;;;16.10;81.67;98656.44;5098284;27;103297;-65
2023/06/06 02:03:26;;;;;;;3.95;3.65;;;;;;;16.18;81.25;98659.22;5081218;27;103029;-64
2023/06/06 02:05:55;;;;;;;3.83;3.53;;;;;;;16.78;77.41;98664.00;5066130;27;102701;-64
2023/06/06 02:08:23;;;;;;;3.85;3.20;;;;;;;17.23;75.22;98663.94;5084273;27;102708;-63
2023/06/06 02:10:52;;;;;;;3.88;3.58;;;;;;;17.21;74.73;98657.03;5096264;27;103224;-64
2023/06/06 02:13:20;;;;;;;4.25;3.90;;;;;;;16.85;76.87;98668.69;5095921;27;103187;-65
2023/06/06 02:15:48;;;;;;;4.68;4.28;;;;;;;16.24;79.98;98667.47;5096616;27;102910;-66
2023/06/06 02:18:16;;;;;;;4.88;4.47;;;;;;;15.92;81.94;98671.50;5088878;27;102890;-65
2023/06/06 02:20:44;;;;;;;4.72;4.20;;;;;;;15.65;82.86;98670.47;5090058;27;103372;-66
2023/06/06 02:23:12;;;;;;;5.03;4.63;;;;;;;15.54;83.58;98678.63;5094640;27;103823;-65
2023/06/06 02:25:42;;;;;;;4.80;4.13;;;;;;;15.53;83.32;98676.09;5093961;27;104128;-65
2023/06/06 02:28:15;;;;;;;5.90;4.80;;;;;;;15.45;84.48;98676.78;5076949;27;102814;-65
2023/06/06 02:30:43;;;;;;;5.43;4.77;;;;;;;15.29;85.17;98673.84;5072597;27;103320;-65
2023/06/06 02:33:11;;;;;;;5.35;4.85;;;;;;;15.36;85.40;98682.09;5093237;27;103202;-65
2023/06/06 02:35:39;;;;;;;5.53;4.50;;;;;;;15.46;84.42;98678.50;5075552;27;103556;-69
2023/06/06 02:38:07;;;;;;;4.20;3.90;;;;;;;16.22;81.18;98681.94;5071746;27;102840;-69
2023/06/06 02:40:35;;;;;;;4.70;4.30;;;;;;;16.36;79.60;98686.78;5091682;27;104006;-68
2023/06/06 02:43:04;;;;;;;4.10;3.70;;;;;;;16.59;78.68;98676.59;5077534;27;105462;-68
2023/06/06 02:45:33;;;;;;;4.97;4.57;;;;;;;16.10;80.87;98686.63;5097785;27;102990;-68
2023/06/06 02:48:01;;;;;;;4.80;4.40;;;;;;;16.16;81.85;98688.69;5088420;27;104133;-64
2023/06/06 02:50:30;;;;;;;5.27;4.77;;;;;;;16.17;80.05;98692.19;5083802;27;104734;-63
2023/06/06 02:53:00;;;;;;;4.28;3.88;;;;;;;16.42;79.40;98680.84;5078984;27;103679;-64
2023/06/06 02:55:28;;;;;;;4.60;4.20;;;;;;;16.43;79.52;98685.19;5088594;27;102570;-68
2023/06/06 02:57:56;;;;;;;5.53;5.10;;;;;;;15.93;81.84;98686.53;5079405;27;102711;-69
2023/06/06 03:00:24;;;;;;;5.80;5.30;;;;;;;15.64;83.14;98686.56;5093457;27;103348;-68
2023/06/06 03:02:53;;;;;;;5.30;4.90;;;;;;;15.88;83.36;98688.78;5074798;27;105066;-68
2023/06/06 03:05:22;;;;;;;5.68;5.18;;;;;;;15.83;82.45;98685.72;5080298;27;102693;-64
2023/06/06 03:07:50;;;;;;;5.47;5.07;;;;;;;15.61;83.88;98692.19;5098184;27;102715;-65
2023/06/06 03:10:18;;;;;;;5.90;5.40;;;;;;;15.29;85.20;98703.13;5087616;27;104143;-65
2023/06/06 03:12:49;;;;;;;5.78;5.38;;;;;;;15.10;86.63;98698.63;5075388;27;105075;-64
2023/06/06 03:15:21;;;;;;;6.32;5.78;;;;;;;15.17;86.25;98704.22;5078364;27;103006;-69
2023/06/06 03:17:53;;;;;;;5.50;5.00;;;;;;;15.47;85.15;98701.44;5068889;27;104042;-69
2023/06/06 03:20:24;;;;;;;5.70;5.15;;;;;;;15.44;84.57;98701.69;5078585;27;103477;-64
2023/06/06 03:23:02;;;;;;;5.35;4.72;;;;;;;15.44;84.53;98696.38;5073020;27;103167;-69
2023/06/06 03:25:31;;;;;;;5.57;5.07;;;;;;;15.31;85.25;98702.97;5068722;27;104119;-69
2023/06/06 03:27:59;;;;;;;5.68;5.22;;;;;;;15.41;84.50;98706.50;5087860;27;104487;-69
2023/06/06 03:30:27;;;;;;;5.20;4.80;;;;;;;15.69;83.47;98708.28;5084782;27;103811;-69
2023/06/06 03:33:00;;;;;;;3.80;3.50;;;;;;;16.30;80.29;98703.38;5068505;27;105362;-69
2023/06/06 03:35:31;;;;;;;3.55;3.25;;;;;;;16.66;77.17;98712.34;5076163;27;102804;-69
2023/06/06 03:38:00;;;;;;;2.40;2.20;;;;;;;16.89;74.65;98705.63;5078657;27;103405;-69
2023/06/06 03:40:28;;;;;;;3.40;3.15;;;;;;;16.94;72.95;98711.34;5082125;27;103274;-64
2023/06/06 03:42:56;;;;;;;3.50;3.20;;;;;;;17.01;72.30;98716.94;5092231;27;103483;-67
2023/06/06 03:45:25;;;;;;;3.78;3.47;;;;;;;16.89;72.06;98713.63;5086557;27;102647;-67
2023/06/06 03:47:53;;;;;;;3.30;3.03;;;;;;;16.79;72.07;98721.69;5075340;27;104881;-67
2023/06/06 03:50:24;;;;;;;4.40;4.10;;;;;;;15.76;78.27;98721.88;5081702;27;103258;-68
2023/06/06 03:52:54;;;;;;;4.70;4.30;;;;;;;15.64;79.31;98719.38;5080401;27;105443;-68
2023/06/06 03:55:23;;;;;;;4.60;4.20;;;;;;;15.96;77.94;98719.06;5077214;27;102860;-68
2023/06/06 03:57:52;;;;;;;3.90;3.50;;;;;;;16.41;75.75;98713.84;5078886;27;103124;-68
2023/06/06 04:00:20;;;;;;;4.32;3.95;;;;;;;16.13;77.39;98720.13;5070714;27;104151;-69
2023/06/06 04:02:48;;;;;;;4.50;4.10;;;;;;;16.13;77.51;98717.47;5086047;27;103409;-69
2023/06/06 04:05:17;;;;;;;3.90;3.60;;;;;;;16.59;75.86;98721.94;5069419;27;102650;-73
2023/06/06 04:07:47;;;;;;;5.50;5.00;;;;;;;16.32;76.95;98719.22;5071395;27;103147;-78
2023/06/06 04:10:15;;;;;;;5.35;4.93;;;;;;;15.71;80.51;98726.81;5073744;27;103330;-78
2023/06/06 04:12:54;;;;;;;5.15;4.65;;;;;;;15.70;81.07;98727.78;5096934;27;103204;-77
2023/06/06 04:15:34;;;;;;;5.50;5.10;;;;;;;15.75;81.59;98725.56;5059879;27;102682;-78
2023/06/06 04:18:02;;;;;;;5.30;4.90;;;;;;;15.93;80.39;98723.81;5092271;27;103249;-78
2023/06/06 04:20:32;;;;;;;5.43;5.03;;;;;;;15.41;82.83;98728.59;5079107;27;103325;-77
2023/06/06 04:23:01;;;;;;;5.22;4.82;;;;;;;15.88;81.07;98737.59;5071321;27;105707;-78
2023/06/06 04:25:32;;;;;;;5.00;4.60;;;;;;;15.72;81.89;98736.50;5072404;27;102816;-77
2023/06/06 04:28:01;;;;;;;4.53;4.13;;;;;;;16.32;78.63;98741.38;5074784;27;103745;-77
2023/06/06 04:30:32;;;;;;;4.73;4.33;;;;;;;16.38;78.95;98735.47;5068438;27;103281;-77
2023/06/06 04:33:01;;;;;;;6.05;5.55;;;;;;;15.71;82.81;98740.13;5091800;27;103245;-78
2023/06/06 04:35:30;;;;;;;6.40;5.80;;;;;;;15.18;86.93;98740.53;5074927;27;102752;-67
2023/06/06 04:37:58;;;;;;;6.95;6.32;;;;;;;15.17;87.31;98741.50;5074699;27;102780;-65
2023/06/06 04:40:32;;;;;;;6.40;5.90;;;;;;;15.32;86.32;98740.13;5092151;27;104179;-73
2023/06/06 04:43:23;;;;;;;6.85;6.15;;;;;;;15.43;85.41;98742.63;5070765;27;103766;-65
2023/06/06 04:45:53;;;;;;;6.95;6.03;;;;;;;15.30;86.29;98742.03;5077754;27;103107;-70
2023/06/06 04:48:25;;;;;;;5.72;5.22;;;;;;;15.78;83.87;98747.41;5069791;27;104466;-74
2023/06/06 04:50:55;;;;;;;5.77;5.27;;;;;;;16.08;83.09;98749.84;5091387;27;103535;-74
2023/06/06 04:53:25;;;;;;;5.80;5.32;;;;;;;16.18;81.92;98744.50;5069963;27;103247;-74
2023/06/06 04:55:55;;;;;;;5.50;5.00;;;;;;;16.15;81.39;98747.47;5072256;27;103264;-75
2023/06/06 04:58:25;;;;;;;5.80;5.30;;;;;;;16.26;81.29;98741.97;5072122;27;104169;-75
2023/06/06 05:00:53;;;;;;;5.70;5.20;;;;;;;16.26;81.82;98747.28;5087588;27;103095;-76
2023/06/06 05:03:21;;;;;;;5.82;5.32;;;;;;;15.98;82.72;98745.53;5088510;27;103207;-74
2023/06/06 05:05:49;;;;;;;6.18;5.57;;;;;;;16.00;82.13;98755.06;5068696;27;103136;-74
2023/06/06 05:08:19;;;;;;;5.72;5.22;;;;;;;16.11;81.91;98759.41;5084547;27;102720;-75
2023/06/06 05:10:47;;;;;;;5.32;4.80;;;;;;;16.62;80.30;98743.81;5074912;27;103262;-75
2023/06/06 05:13:18;;;;;;;6.18;5.22;;;;;;;16.74;78.77;98742.63;5091404;27;103317;-74
2023/06/06 05:15:46;;;;;;;5.03;4.63;;;;;;;16.68;79.98;98748.56;5074881;27;103328;-75
2023/06/06 05:18:15;;;;;;;5.37;4.90;;;;;;;17.02;77.25;98751.47;5068677;27;103380;-74
2023/06/06 05:20:43;;;;;;;4.40;4.00;;;;;;;17.20;76.57;98754.16;5089579;27;103802;-74
2023/06/06 05:23:12;;;;;;;4.78;4.38;;;;;;;17.25;75.93;98757.22;5088660;27;103220;-74
2023/06/06 05:25:40;;;;;;;3.88;3.58;;;;;;;17.72;73.46;98760.50;5090282;27;102705;-74
2023/06/06 05:28:11;;;;;;;4.17;3.77;;;;;;;17.87;73.02;98762.50;5073530;27;102914;-75
2023/06/06 05:30:40;;;;;;;5.88;4.90;;;;;;;16.99;75.88;98761.59;5085593;27;104136;-75
2023/06/06 05:33:09;;;;;;;4.65;4.00;;;;;;;17.72;73.83;98764.03;5066807;27;103329;-75
2023/06/06 05:35:37;;;;;;;4.78;4.35;;;;;;;17.81;74.25;98771.13;5084118;27;102931;-75
2023/06/06 05:38:06;;;;;;;5.20;3.90;;;;;;;18.28;70.57;98762.75;5087033;27;102969;-75
2023/06/06 05:40:34;;;;;;;5.13;4.60;;;;;;;17.65;73.21;98783.50;5067590;27;103339;-74
2023/06/06 05:43:02;;;;;;;5.22;4.53;;;;;;;18.00;73.26;98771.91;5087782;27;103203;-75
2023/06/06 05:45:30;;;;;;;5.13;4.63;;;;;;;17.46;73.57;98771.09;5085907;27;102732;-75
2023/06/06 05:48:00;;;;;;;4.37;3.97;;;;;;;18.29;71.10;98765.28;5087475;27;103028;-74
2023/06/06 05:50:29;;;;;;;4.22;3.53;;;;;;;18.56;69.57;98766.13;5083708;27;104106;-74
2023/06/06 05:52:57;;;;;;;5.28;4.50;;;;;;;17.39;71.94;98775.38;5089334;27;102666;-75
2023/06/06 05:55:28;;;;;;;3.70;3.20;;;;;;;18.37;69.23;98767.16;5084466;27;102966;-74
2023/06/06 05:57:56;;;;;;;4.45;4.05;;;;;;;18.74;67.03;98764.22;5067572;27;104556;-74
2023/06/06 06:00:25;;;;;;;4.28;3.83;;;;;;;18.78;66.65;98761.06;5088008;27;103249;-73
2023/06/06 06:02:55;;;;;;;3.20;3.00;;;;;;;19.19;65.48;98763.88;5070970;27;103321;-74
2023/06/06 06:05:28;;;;;;;3.50;3.20;;;;;;;19.40;64.32;98773.16;5087044;27;102628;-74
2023/06/06 06:07:59;;;;;;;3.90;3.30;;;;;;;19.67;63.26;98769.38;5093849;27;102695;-75
2023/06/06 06:10:27;;;;;;;4.72;4.03;;;;;;;19.80;62.85;98766.16;5089792;27;103338;-69
2023/06/06 06:12:55;;;;;;;4.93;3.30;;;;;;;20.01;61.81;98767.38;5086135;27;103567;-59
2023/06/06 06:15:48;;;;;;;4.28;3.88;;;;;;;20.17;61.10;98772.69;5087291;27;102696;-65
2023/06/06 06:18:50;;;;;;;4.25;3.88;;;;;;;20.28;60.55;98774.22;5070730;27;102735;-64
2023/06/06 06:21:43;;;;;;;3.67;3.37;;;;;;;20.37;60.27;98777.72;5069152;27;103099;-64
2023/06/06 06:24:11;;;;;;;5.05;4.22;;;;;;;20.18;60.85;98779.72;5091811;27;103098;-70
2023/06/06 06:26:39;;;;;;;3.93;3.57;;;;;;;20.24;60.54;98767.47;5070370;27;102940;-70
2023/06/06 06:29:07;;;;;;;4.55;4.13;;;;;;;19.97;61.31;98782.09;5090264;27;103284;-70
2023/06/06 06:31:35;;;;;;;4.60;4.13;;;;;;;20.17;61.08;98778.06;5085343;27;103643;-68
2023/06/06 06:34:03;;;;;;;5.70;4.13;;;;;;;20.21;61.06;98783.91;5069980;27;103760;-69
2023/06/06 06:36:31;;;;;;;4.30;3.90;;;;;;;20.59;59.73;98777.00;5087131;27;102912;-68
2023/06/06 06:39:00;;;;;;;3.80;3.50;;;;;;;20.97;58.73;98776.19;5089030;27;104534;-68
2023/06/06 06:41:28;;;;;;;4.53;3.70;;;;;;;21.24;58.24;98782.97;5089602;27;103232;-74
2023/06/06 06:43:56;;;;;;;3.10;2.80;;;;;;;21.33;56.72;98777.38;5076899;27;103472;-73
2023/06/06 06:46:24;;;;;;;3.75;3.30;;;;;;;21.01;58.54;98793.63;5097490;27;102681;-72
2023/06/06 06:48:54;;;;;;;4.23;3.83;;;;;;;21.30;57.24;98785.81;5099986;27;104278;-74
2023/06/06 06:51:22;;;;;;;4.45;3.72;;;;;;;21.04;57.25;98787.06;5084099;27;103105;-73
2023/06/06 06:53:51;;;;;;;3.80;3.50;;;;;;;21.08;57.14;98783.88;5085521;27;103246;-74
2023/06/06 06:56:21;;;;;;;3.80;3.50;;;;;;;21.39;56.13;98783.88;5084158;27;102917;-73
2023/06/06 06:58:51;;;;;;;4.40;4.00;;;;;;;21.16;57.04;98785.72;5095561;27;104122;-72
2023/06/06 07:01:20;;;;;;;3.67;3.38;;;;;;;21.58;56.30;98782.63;5085987;27;103111;-72
2023/06/06 07:03:48;;;;;;;3.53;3.22;;;;;;;22.15;53.41;98783.84;5074359;27;103399;-74
2023/06/06 07:06:18;;;;;;;4.20;3.80;;;;;;;21.98;53.43;98786.88;5093662;27;102651;-74
2023/06/06 07:08:47;;;;;;;4.25;3.47;;;;;;;21.72;54.32;98781.84;5081095;27;102937;-74
2023/06/06 07:11:14;;;;;;;3.90;3.50;;;;;;;21.63;54.91;98796.34;5069318;27;103325;-73
2023/06/06 07:13:44;;;;;;;3.92;3.58;;;;;;;21.72;54.62;98793.44;5077886;27;103238;-73
2023/06/06 07:16:12;;;;;;;4.18;3.75;;;;;;;21.82;53.80;98788.66;5079146;27;104347;-74
2023/06/06 07:18:40;;;;;;;4.03;3.63;;;;;;;22.05;53.78;98785.97;5099954;27;103071;-73
2023/06/06 07:21:09;;;;;;;4.50;4.10;;;;;;;21.84;54.03;98791.13;5105065;27;103337;-74
2023/06/06 07:23:39;;;;;;;4.15;3.83;;;;;;;21.94;53.96;98787.25;5102052;27;103291;-75
2023/06/06 07:26:08;;;;;;;4.72;3.80;;;;;;;22.12;54.31;98789.59;5077773;27;102983;-73
2023/06/06 07:28:36;;;;;;;4.60;3.78;;;;;;;22.20;52.86;98789.56;5101290;27;102629;-73
2023/06/06 07:31:05;;;;;;;4.83;3.90;;;;;;;21.61;54.56;98795.69;5106116;27;103932;-73
2023/06/06 07:33:35;;;;;;;3.37;3.07;;;;;;;22.62;51.72;98780.03;5098717;27;103309;-73
2023/06/06 07:36:03;;;;;;;4.88;3.78;;;;;;;23.01;50.97;98780.63;5101368;27;103134;-73
2023/06/06 07:38:31;;;;;;;4.95;3.72;;;;;;;23.14;50.94;98774.53;5086286;27;102767;-73
2023/06/06 07:40:59;;;;;;;4.45;3.60;;;;;;;22.61;51.86;98783.75;5099203;27;102964;-74
2023/06/06 07:43:28;;;;;;;3.70;3.40;;;;;;;22.90;50.62;98778.41;5088694;27;103199;-74
2023/06/06 07:45:56;;;;;;;4.05;3.40;;;;;;;22.91;50.92;98767.41;5096312;27;103104;-73
2023/06/06 07:48:26;;;;;;;4.47;4.05;;;;;;;21.29;54.50;98784.13;5085678;27;103051;-73
2023/06/06 07:50:55;;;;;;;5.07;4.03;;;;;;;21.92;53.59;98772.31;5094744;27;103220;-73
2023/06/06 07:53:24;;;;;;;4.43;3.93;;;;;;;22.44;52.28;98775.84;5098552;27;103036;-73
2023/06/06 07:55:53;;;;;;;3.95;3.55;;;;;;;23.32;51.40;98775.81;5090048;27;102721;-73
2023/06/06 07:58:26;;;;;;;3.83;3.30;;;;;;;23.54;49.91;98766.78;5085268;27;102753;-73
2023/06/06 08:00:58;;;;;;;4.30;3.90;;;;;;;22.58;50.03;98773.34;5085411;27;103367;-72
2023/06/06 08:03:29;;;;;;;4.55;3.65;;;;;;;23.96;48.65;98770.50;5096733;27;103247;-71
2023/06/06 08:05:57;;;;;;;6.60;3.40;;;;;;;23.78;48.52;98772.78;5099067;27;102895;-72
2023/06/06 08:08:26;;;;;;;6.00;3.80;;;;;;;23.20;48.05;98765.72;5080480;27;104175;-72
2023/06/06 08:10:56;;;;;;;3.97;3.47;;;;;;;22.59;48.89;98777.72;5094603;27;103284;-73
2023/06/06 08:13:24;;;;;;;3.75;3.38;;;;;;;24.11;48.34;98768.59;5102553;27;103322;-73
2023/06/06 08:15:53;;;;;;;4.77;3.53;;;;;;;25.03;46.21;98769.22;5104587;27;103221;-73
2023/06/06 08:18:21;;;;;;;3.38;2.95;;;;;;;25.86;43.67;98772.41;5101998;27;103954;-72
2023/06/06 08:20:50;;;;;;;4.55;3.45;;;;;;;22.84;48.30;98784.53;5081155;27;103762;-72
2023/06/06 08:23:18;;;;;;;3.78;3.47;;;;;;;24.36;46.47;98764.41;5102960;27;103219;-72
2023/06/06 08:25:46;;;;;;;4.07;3.42;;;;;;;24.41;45.20;98764.66;5089557;27;103048;-72
2023/06/06 08:28:15;;;;;;;4.78;3.38;;;;;;;23.63;47.21;98771.00;5095549;27;102980;-73
2023/06/06 08:30:43;;;;;;;3.58;3.00;;;;;;;25.42;43.90;98769.38;5073624;27;104136;-73
2023/06/06 08:33:11;;;;;;;4.05;3.30;;;;;;;26.59;42.82;98758.84;5098071;27;103211;-73
2023/06/06 08:35:39;;;;;;;4.15;3.15;;;;;;;27.28;41.27;98753.69;5096479;27;102797;-73
2023/06/06 08:38:08;;;;;;;3.47;3.17;;;;;;;25.66;41.68;98767.97;5088451;27;103750;-72
2023/06/06 08:40:36;;;;;;;3.45;3.15;;;;;;;25.93;42.02;98756.19;5095591;27;103184;-70
2023/06/06 08:43:06;;;;;;;4.10;3.03;;;;;;;26.01;40.22;98761.38;5091019;27;103199;-72
2023/06/06 08:45:34;;;;;;;4.70;3.17;;;;;;;23.91;42.47;98762.16;5101203;27;102645;-72
2023/06/06 08:48:04;;;;;;;3.60;3.20;;;;;;;24.33;42.85;98759.41;5085712;27;102980;-72
2023/06/06 08:50:35;;;;;;;3.92;3.10;;;;;;;25.86;41.47;98756.16;5091694;27;104022;-72
2023/06/06 08:53:05;;;;;;;4.22;3.25;;;;;;;25.37;40.56;98758.31;5091437;27;102984;-71
2023/06/06 08:55:37;;;;;;;3.25;2.95;;;;;;;26.98;40.49;98751.50;5102721;27;103013;-71
2023/06/06 08:58:06;;;;;;;3.47;3.17;;;;;;;27.83;39.01;98754.84;5074098;27;102999;-71
2023/06/06 09:00:34;;;;;;;3.88;3.00;;;;;;;28.66;36.16;98751.66;5093237;27;104279;-71
2023/06/06 09:03:06;;;;;;;3.63;3.17;;;;;;;28.65;36.44;98754.59;5100239;27;102664;-72
2023/06/06 09:05:38;;;;;;;3.53;3.23;;;;;;;27.86;36.83;98749.81;5095975;27;102847;-72
2023/06/06 09:08:07;;;;;;;4.47;3.50;;;;;;;26.61;39.12;98754.91;5086865;27;104340;-72
2023/06/06 09:10:37;;;;;;;3.63;3.13;;;;;;;25.96;39.29;98760.34;5089165;27;103293;-71
2023/06/06 09:13:07;;;;;;;3.10;2.80;;;;;;;28.41;36.19;98755.44;5083688;27;103207;-68
2023/06/06 09:15:36;;;;;;;3.23;2.93;;;;;;;30.00;34.47;98753.31;5076233;27;103130;-69
2023/06/06 09:18:04;;;;;;;3.58;3.25;;;;;;;29.68;35.99;98747.25;5091121;27;102990;-69
2023/06/06 09:20:34;;;;;;;3.95;3.10;;;;;;;29.77;36.04;98745.88;5097699;27;104328;-69
2023/06/06 09:23:03;;;;;;;3.60;3.30;;;;;;;28.87;35.59;98749.56;5094072;27;102675;-68
2023/06/06 09:25:32;;;;;;;3.70;3.20;;;;;;;27.28;37.69;98753.69;5094585;27;103626;-68
2023/06/06 09:28:03;;;;;;;3.60;3.17;;;;;;;29.39;37.00;98745.38;5076562;27;102803;-68
2023/06/06 09:30:35;;;;;;;4.90;3.50;;;;;;;26.40;38.05;98755.16;5074308;27;103288;-69
2023/06/06 09:33:04;;;;;;;3.55;3.20;;;;;;;27.14;37.25;98746.66;5080595;27;103187;-71
2023/06/06 09:35:34;;;;;;;3.90;3.50;;;;;;;25.89;39.62;98752.19;5083970;27;102945;-71
2023/06/06 09:38:07;;;;;;;4.32;3.13;;;;;;;28.89;36.79;98734.66;5082411;27;102746;-70
2023/06/06 09:40:44;;;;;;;3.40;3.10;;;;;;;30.01;34.73;98731.28;5095532;27;102893;-71
2023/06/06 09:43:15;;;;;;;3.55;3.10;;;;;;;30.19;34.14;98735.81;5097608;27;103210;-71
2023/06/06 09:45:51;;;;;;;4.43;3.23;;;;;;;30.37;34.18;98733.03;5092479;27;102707;-71
2023/06/06 09:48:21;;;;;;;5.00;3.40;;;;;;;28.04;35.98;98739.03;5086850;27;104137;-71
2023/06/06 09:50:49;;;;;;;4.38;3.47;;;;;;;29.15;36.25;98739.78;5094975;27;103269;-71
2023/06/06 09:53:18;;;;;;;3.78;3.47;;;;;;;29.35;35.97;98741.47;5098215;27;103265;-70
2023/06/06 09:55:48;;;;;;;3.70;3.40;;;;;;;30.43;34.21;98737.50;5095873;27;103682;-71
2023/06/06 09:58:17;;;;;;;6.80;3.50;;;;;;;27.84;35.72;98740.22;5073118;27;104226;-71
2023/06/06 10:00:46;;;;;;;3.88;3.47;;;;;;;28.73;34.83;98733.41;5097694;27;103443;-71
2023/06/06 10:03:18;;;;;;;4.55;3.20;;;;;;;29.23;35.25;98734.06;5087781;27;102805;-70
2023/06/06 10:05:47;;;;;;;3.83;3.28;;;;;;;28.38;35.17;98731.44;5091156;27;103152;-71
2023/06/06 10:08:17;;;;;;;3.47;3.17;;;;;;;29.76;34.93;98722.41;5073692;27;103324;-71
2023/06/06 10:10:48;;;;;;;3.70;3.40;;;;;;;30.76;34.34;98715.09;5064364;27;103908;-71
2023/06/06 10:13:20;;;;;;;3.60;3.30;;;;;;;27.32;34.77;98725.06;5080016;27;103202;-71
2023/06/06 10:15:49;;;;;;;4.10;3.40;;;;;;;29.38;34.96;98717.34;5092237;27;102724;-70
2023/06/06 10:18:19;;;;;;;3.25;2.95;;;;;;;30.64;32.80;98719.72;5076283;27;104069;-68
2023/06/06 10:20:47;;;;;;;4.00;3.60;;;;;;;29.55;34.38;98714.81;5089703;27;103287;-69
2023/06/06 10:23:15;;;;;;;4.55;3.53;;;;;;;29.37;33.67;98717.56;5091596;27;103186;-70
2023/06/06 10:25:45;;;;;;;4.18;3.50;;;;;;;28.11;34.60;98714.53;5075123;27;102785;-69
2023/06/06 10:28:22;;;;;;;3.63;3.30;;;;;;;30.55;34.23;98715.69;5092731;27;103132;-70
2023/06/06 10:30:57;;;;;;;3.67;3.00;;;;;;;30.69;33.05;98703.47;5089422;27;103305;-70
2023/06/06 10:33:33;;;;;;;3.50;2.90;;;;;;;30.34;31.12;98703.47;5077983;27;103249;-70
2023/06/06 10:36:04;;;;;;;4.07;2.97;;;;;;;28.79;33.16;98711.78;5091955;27;102653;-69
2023/06/06 10:38:34;;;;;;;3.90;3.53;;;;;;;29.30;33.93;98698.63;5088057;27;102950;-69
2023/06/06 10:41:14;;;;;;;3.70;3.40;;;;;;;28.10;35.43;98712.88;5085380;27;103153;-69
2023/06/06 10:43:54;;;;;;;3.87;3.47;;;;;;;27.48;35.09;98702.91;5087221;27;103245;-67
2023/06/06 10:46:23;;;;;;;4.68;3.35;;;;;;;27.88;35.60;98698.00;5090829;27;103199;-69
2023/06/06 10:48:58;;;;;;;5.63;3.43;;;;;;;29.17;34.29;98705.03;5093849;27;103575;-68
2023/06/06 10:51:32;;;;;;;3.60;3.30;;;;;;;29.82;33.19;98702.47;5090168;27;103343;-69
2023/06/06 10:54:20;;;;;;;3.80;3.40;;;;;;;28.80;33.30;98697.97;5070710;27;103369;-69
2023/06/06 10:56:52;;;;;;;4.20;3.80;;;;;;;27.47;35.29;98693.09;5085916;27;102734;-69
2023/06/06 10:59:27;;;;;;;4.00;3.50;;;;;;;27.35;36.81;98692.06;5085409;27;104525;-69
2023/06/06 11:01:56;;;;;;;4.00;3.20;;;;;;;29.48;33.39;98689.56;5078586;27;103656;-69
2023/06/06 11:04:25;;;;;;;3.63;3.20;;;;;;;30.64;32.67;98687.00;5089685;27;103242;-69
2023/06/06 11:07:00;;;;;;;4.05;3.10;;;;;;;30.31;31.63;98680.25;5095997;27;102884;-69
2023/06/06 11:09:31;;;;;;;4.40;3.63;;;;;;;28.01;36.59;98696.03;5078531;27;103048;-69
2023/06/06 11:12:25;;;;;;;3.95;3.55;;;;;;;28.36;34.70;98690.91;5069226;27;103251;-70
2023/06/06 11:14:58;;;;;;;4.30;3.88;;;;;;;27.18;36.10;98691.75;5090769;27;103206;-69
2023/06/06 11:17:29;;;;;;;5.00;3.57;;;;;;;28.18;35.42;98686.25;5067108;27;103071;-70
2023/06/06 11:20:00;;;;;;;4.05;3.65;;;;;;;27.95;34.24;98687.94;5091286;27;102690;-69
2023/06/06 11:22:31;;;;;;;3.90;3.50;;;;;;;26.46;36.47;98695.56;5088913;27;103361;-69
2023/06/06 11:24:59;;;;;;;3.90;3.50;;;;;;;26.72;35.18;98685.69;5090624;27;103008;-68
2023/06/06 11:27:28;;;;;;;4.07;3.67;;;;;;;28.53;34.29;98677.56;5075535;27;103162;-70
2023/06/06 11:29:57;;;;;;;4.97;3.60;;;;;;;27.19;36.17;98682.59;5079369;27;102790;-70
2023/06/06 11:32:25;;;;;;;4.55;3.42;;;;;;;26.77;36.28;98677.75;5083983;27;103216;-70
2023/06/06 11:34:57;;;;;;;3.40;3.10;;;;;;;27.93;35.14;98680.00;5094763;27;103301;-70
2023/06/06 11:37:26;;;;;;;5.80;3.45;;;;;;;28.10;35.47;98681.13;5093582;27;102842;-69